sensor_id;sensor_type;location;lat;lon;timestamp;P1;durP1;ratioP1;P2;durP2;ratioP2
2658;SDS011;1339;53.304;10.406;2023-06-22T17:22:48;16.80;;;15.40;;
2658;SDS011;1339;53.304;10.406;2023-06-22T17:25:15;21.07;;;19.27;;
2658;SDS011;1339;53.304;10.406;2023-06-22T17:27:46;19.63;;;18.13;;
2658;SDS011;1339;53.304;10.406;2023-06-22T17:30:14;17.40;;;16.10;;
2658;SDS011;1339;53.304;10.406;2023-06-22T17:32:45;14.10;;;13.00;;
2658;SDS011;1339;53.304;10.406;2023-06-22T17:35:12;12.60;;;11.70;;
2658;SDS011;1339;53.304;10.406;2023-06-22T17:37:46;12.90;;;11.80;;
2658;SDS011;1339;53.304;10.406;2023-06-22T17:40:15;11.90;;;11.00;;
2658;SDS011;1339;53.304;10.406;2023-06-22T17:42:42;10.40;;;9.50;;
2658;SDS011;1339;53.304;10.406;2023-06-22T17:45:14;10.43;;;9.53;;
2658;SDS011;1339;53.304;10.406;2023-06-22T17:47:42;10.90;;;10.00;;
2658;SDS011;1339;53.304;10.406;2023-06-22T17:50:09;8.63;;;7.90;;
2658;SDS011;1339;53.304;10.406;2023-06-22T17:52:36;8.50;;;7.80;;
2658;SDS011;1339;53.304;10.406;2023-06-22T17:55:03;8.20;;;7.50;;
2658;SDS011;1339;53.304;10.406;2023-06-22T17:57:37;8.40;;;7.70;;
2658;SDS011;1339;53.304;10.406;2023-06-22T18:00:08;10.83;;;9.70;;
2658;SDS011;1339;53.304;10.406;2023-06-22T18:02:36;9.17;;;8.47;;
2658;SDS011;1339;53.304;10.406;2023-06-22T18:05:04;8.53;;;7.73;;
2658;SDS011;1339;53.304;10.406;2023-06-22T18:07:32;8.10;;;7.50;;
2658;SDS011;1339;53.304;10.406;2023-06-22T18:09:59;8.50;;;7.90;;
2658;SDS011;1339;53.304;10.406;2023-06-22T18:12:27;8.70;;;8.00;;
2658;SDS011;1339;53.304;10.406;2023-06-22T18:14:56;7.43;;;6.60;;
2658;SDS011;1339;53.304;10.406;2023-06-22T18:17:23;8.50;;;7.80;;
2658;SDS011;1339;53.304;10.406;2023-06-22T18:19:51;8.07;;;7.47;;
2658;SDS011;1339;53.304;10.406;2023-06-22T18:22:18;8.10;;;7.40;;
2658;SDS011;1339;53.304;10.406;2023-06-22T18:24:45;7.87;;;7.27;;
2658;SDS011;1339;53.304;10.406;2023-06-22T18:27:12;7.63;;;7.10;;
2658;SDS011;1339;53.304;10.406;2023-06-22T18:29:41;7.03;;;6.43;;
2658;SDS011;1339;53.304;10.406;2023-06-22T18:32:10;10.13;;;6.93;;
2658;SDS011;1339;53.304;10.406;2023-06-22T18:34:38;6.60;;;6.10;;
2658;SDS011;1339;53.304;10.406;2023-06-22T18:37:06;7.20;;;6.60;;
2658;SDS011;1339;53.304;10.406;2023-06-22T18:39:35;8.47;;;7.87;;
2658;SDS011;1339;53.304;10.406;2023-06-22T18:42:03;7.00;;;6.50;;
2658;SDS011;1339;53.304;10.406;2023-06-22T18:44:31;5.80;;;5.40;;
2658;SDS011;1339;53.304;10.406;2023-06-22T18:47:00;5.87;;;5.47;;
2658;SDS011;1339;53.304;10.406;2023-06-22T18:49:31;6.67;;;6.13;;
2658;SDS011;1339;53.304;10.406;2023-06-22T18:52:02;7.20;;;6.60;;
2658;SDS011;1339;53.304;10.406;2023-06-22T18:54:32;6.30;;;5.90;;
2658;SDS011;1339;53.304;10.406;2023-06-22T18:57:00;5.90;;;5.50;;
2658;SDS011;1339;53.304;10.406;2023-06-22T18:59:47;4.93;;;4.53;;
2658;SDS011;1339;53.304;10.406;2023-06-22T19:02:33;5.97;;;5.57;;
2658;SDS011;1339;53.304;10.406;2023-06-22T19:05:14;5.90;;;5.50;;
2658;SDS011;1339;53.304;10.406;2023-06-22T19:07:57;6.40;;;5.90;;
2658;SDS011;1339;53.304;10.406;2023-06-22T19:10:27;7.93;;;5.30;;
2658;SDS011;1339;53.304;10.406;2023-06-22T19:12:56;4.93;;;4.43;;
2658;SDS011;1339;53.304;10.406;2023-06-22T19:15:30;6.60;;;6.00;;
2658;SDS011;1339;53.304;10.406;2023-06-22T19:17:59;5.07;;;4.67;;
2658;SDS011;1339;53.304;10.406;2023-06-22T19:20:32;6.00;;;5.50;;
2658;SDS011;1339;53.304;10.406;2023-06-22T19:23:00;5.77;;;5.30;;
2658;SDS011;1339;53.304;10.406;2023-06-22T19:25:27;5.60;;;5.10;;
2658;SDS011;1339;53.304;10.406;2023-06-22T19:27:55;4.37;;;4.07;;
2658;SDS011;1339;53.304;10.406;2023-06-22T19:30:23;5.63;;;4.53;;
2658;SDS011;1339;53.304;10.406;2023-06-22T19:32:50;5.50;;;5.10;;
2658;SDS011;1339;53.304;10.406;2023-06-22T19:35:18;5.50;;;4.97;;
2658;SDS011;1339;53.304;10.406;2023-06-22T19:37:47;4.77;;;4.37;;
2658;SDS011;1339;53.304;10.406;2023-06-22T19:40:14;6.73;;;4.80;;
2658;SDS011;1339;53.304;10.406;2023-06-22T19:42:42;5.50;;;4.30;;
2658;SDS011;1339;53.304;10.406;2023-06-22T19:45:13;8.07;;;3.93;;
2658;SDS011;1339;53.304;10.406;2023-06-22T19:47:41;4.97;;;4.60;;
2658;SDS011;1339;53.304;10.406;2023-06-22T19:50:09;8.50;;;6.00;;
2658;SDS011;1339;53.304;10.406;2023-06-22T19:52:36;5.17;;;4.70;;
2658;SDS011;1339;53.304;10.406;2023-06-22T19:55:07;5.97;;;5.40;;
2658;SDS011;1339;53.304;10.406;2023-06-22T19:57:34;5.27;;;4.87;;
2658;SDS011;1339;53.304;10.406;2023-06-22T20:00:02;4.80;;;4.40;;
2658;SDS011;1339;53.304;10.406;2023-06-22T20:02:36;5.37;;;4.87;;
2658;SDS011;1339;53.304;10.406;2023-06-22T20:05:03;5.03;;;4.33;;
2658;SDS011;1339;53.304;10.406;2023-06-22T20:07:34;5.70;;;5.30;;
2658;SDS011;1339;53.304;10.406;2023-06-22T20:10:10;6.47;;;5.93;;
2658;SDS011;1339;53.304;10.406;2023-06-22T20:12:38;5.83;;;5.23;;
2658;SDS011;1339;53.304;10.406;2023-06-22T20:15:14;6.50;;;6.00;;
2658;SDS011;1339;53.304;10.406;2023-06-22T20:17:42;7.07;;;6.23;;
2658;SDS011;1339;53.304;10.406;2023-06-22T20:20:18;6.50;;;5.60;;
2658;SDS011;1339;53.304;10.406;2023-06-22T20:22:45;7.27;;;6.73;;
2658;SDS011;1339;53.304;10.406;2023-06-22T20:25:14;7.70;;;7.10;;
2658;SDS011;1339;53.304;10.406;2023-06-22T20:27:44;7.40;;;6.80;;
2658;SDS011;1339;53.304;10.406;2023-06-22T20:30:11;8.13;;;7.33;;
2658;SDS011;1339;53.304;10.406;2023-06-22T20:32:45;8.50;;;7.70;;
2658;SDS011;1339;53.304;10.406;2023-06-22T20:35:12;8.70;;;8.00;;
2658;SDS011;1339;53.304;10.406;2023-06-22T20:37:39;8.83;;;7.80;;
2658;SDS011;1339;53.304;10.406;2023-06-22T20:40:06;6.80;;;6.30;;
2658;SDS011;1339;53.304;10.406;2023-06-22T20:42:36;8.27;;;7.23;;
2658;SDS011;1339;53.304;10.406;2023-06-22T20:45:03;7.97;;;7.17;;
2658;SDS011;1339;53.304;10.406;2023-06-22T20:47:30;7.87;;;7.07;;
2658;SDS011;1339;53.304;10.406;2023-06-22T20:49:57;7.50;;;6.90;;
2658;SDS011;1339;53.304;10.406;2023-06-22T20:52:25;8.43;;;7.63;;
2658;SDS011;1339;53.304;10.406;2023-06-22T20:54:52;9.13;;;8.23;;
2658;SDS011;1339;53.304;10.406;2023-06-22T20:57:19;8.83;;;8.13;;
2658;SDS011;1339;53.304;10.406;2023-06-22T20:59:47;10.43;;;9.40;;
2658;SDS011;1339;53.304;10.406;2023-06-22T21:02:14;11.93;;;9.50;;
2658;SDS011;1339;53.304;10.406;2023-06-22T21:04:41;10.00;;;9.20;;
2658;SDS011;1339;53.304;10.406;2023-06-22T21:07:09;10.87;;;9.87;;
2658;SDS011;1339;53.304;10.406;2023-06-22T21:09:36;9.90;;;9.10;;
2658;SDS011;1339;53.304;10.406;2023-06-22T21:12:03;10.17;;;9.27;;
2658;SDS011;1339;53.304;10.406;2023-06-22T21:14:30;11.27;;;10.27;;
2658;SDS011;1339;53.304;10.406;2023-06-22T21:16:58;9.43;;;8.73;;
2658;SDS011;1339;53.304;10.406;2023-06-22T21:19:25;10.67;;;9.43;;
2658;SDS011;1339;53.304;10.406;2023-06-22T21:21:52;12.97;;;9.73;;
2658;SDS011;1339;53.304;10.406;2023-06-22T21:24:19;10.77;;;9.90;;
2658;SDS011;1339;53.304;10.406;2023-06-22T21:26:46;10.00;;;8.97;;
2658;SDS011;1339;53.304;10.406;2023-06-22T21:29:13;12.67;;;11.07;;
2658;SDS011;1339;53.304;10.406;2023-06-22T21:31:40;10.70;;;9.70;;
2658;SDS011;1339;53.304;10.406;2023-06-22T21:34:08;10.27;;;9.40;;
2658;SDS011;1339;53.304;10.406;2023-06-22T21:36:35;13.70;;;12.07;;
2658;SDS011;1339;53.304;10.406;2023-06-22T21:39:02;10.80;;;9.90;;
2658;SDS011;1339;53.304;10.406;2023-06-22T21:41:29;12.47;;;11.33;;
2658;SDS011;1339;53.304;10.406;2023-06-22T21:43:56;11.27;;;10.27;;
2658;SDS011;1339;53.304;10.406;2023-06-22T21:46:23;10.50;;;9.60;;
2658;SDS011;1339;53.304;10.406;2023-06-22T21:48:50;10.23;;;9.43;;
2658;SDS011;1339;53.304;10.406;2023-06-22T21:51:18;10.57;;;9.77;;
2658;SDS011;1339;53.304;10.406;2023-06-22T21:53:45;8.90;;;8.10;;
2658;SDS011;1339;53.304;10.406;2023-06-22T21:56:13;9.20;;;8.40;;
2658;SDS011;1339;53.304;10.406;2023-06-22T21:58:40;9.20;;;8.40;;
2658;SDS011;1339;53.304;10.406;2023-06-22T22:01:07;9.67;;;8.20;;
2658;SDS011;1339;53.304;10.406;2023-06-22T22:03:34;9.27;;;8.47;;
2658;SDS011;1339;53.304;10.406;2023-06-22T22:06:01;9.00;;;8.30;;
2658;SDS011;1339;53.304;10.406;2023-06-22T22:08:29;8.87;;;7.97;;
2658;SDS011;1339;53.304;10.406;2023-06-22T22:10:56;7.50;;;6.90;;
2658;SDS011;1339;53.304;10.406;2023-06-22T22:13:23;7.23;;;6.67;;
2658;SDS011;1339;53.304;10.406;2023-06-22T22:15:51;11.40;;;7.30;;
2658;SDS011;1339;53.304;10.406;2023-06-22T22:18:18;7.60;;;7.00;;
2658;SDS011;1339;53.304;10.406;2023-06-22T22:20:45;7.33;;;6.63;;
2658;SDS011;1339;53.304;10.406;2023-06-22T22:23:12;7.20;;;6.60;;
2658;SDS011;1339;53.304;10.406;2023-06-22T22:25:41;8.03;;;7.23;;
2658;SDS011;1339;53.304;10.406;2023-06-22T22:28:08;8.80;;;7.60;;
2658;SDS011;1339;53.304;10.406;2023-06-22T22:30:34;7.20;;;6.60;;
2658;SDS011;1339;53.304;10.406;2023-06-22T22:33:01;7.67;;;6.97;;
2658;SDS011;1339;53.304;10.406;2023-06-22T22:35:29;7.10;;;6.50;;
2658;SDS011;1339;53.304;10.406;2023-06-22T22:37:55;7.17;;;6.50;;
2658;SDS011;1339;53.304;10.406;2023-06-22T22:40:22;7.53;;;6.93;;
2658;SDS011;1339;53.304;10.406;2023-06-22T22:42:51;5.90;;;5.40;;
2658;SDS011;1339;53.304;10.406;2023-06-22T22:45:18;7.20;;;6.50;;
2658;SDS011;1339;53.304;10.406;2023-06-22T22:47:45;7.37;;;6.80;;
2658;SDS011;1339;53.304;10.406;2023-06-22T22:50:12;5.87;;;5.37;;
2658;SDS011;1339;53.304;10.406;2023-06-22T22:52:39;7.07;;;6.57;;
